Time;durP1;ratioP1;P1;durP2;ratioP2;P2;SDS_P1;SDS_P2;PMS_P1;PMS_P2;Temp;Humidity;BMP_temperature;BMP_pressure;BME280_temperature;BME280_humidity;BME280_pressure;Samples;Min_cycle;Max_cycle;Signal;HPM_P1;HPM_P2
2023/09/13 00:01:51;;;;;;;1.98;1.33;;;;;;;;;;6134783;23;20028;-75
2023/09/13 00:04:17;;;;;;;1.55;1.45;;;;;;;;;;6125343;23;20171;-76
2023/09/13 00:06:43;;;;;;;1.88;1.38;;;;;;;;;;6134927;23;20362;-76
2023/09/13 00:09:09;;;;;;;1.50;1.40;;;;;;;;;;6134843;23;19998;-76
2023/09/13 00:11:36;;;;;;;1.40;1.30;;;;;;;;;;6134763;23;20426;-76
2023/09/13 00:14:02;;;;;;;2.25;1.35;;;;;;;;;;6134606;23;20006;-80
2023/09/13 00:16:28;;;;;;;1.27;1.20;;;;;;;;;;6125163;23;20002;-80
2023/09/13 00:18:54;;;;;;;1.65;1.20;;;;;;;;;;6134583;23;19998;-80
2023/09/13 00:21:20;;;;;;;1.98;1.23;;;;;;;;;;6134399;23;20080;-79
2023/09/13 00:23:47;;;;;;;1.30;1.20;;;;;;;;;;6134450;23;20009;-80
2023/09/13 00:26:14;;;;;;;1.70;1.40;;;27.30;68.60;;;;;;6134368;23;20330;-80
2023/09/13 00:28:40;;;;;;;1.88;1.33;;;;;;;;;;6134443;23;20002;-80
2023/09/13 00:31:09;;;;;;;1.38;1.27;;;27.30;68.50;;;;;;6134999;23;19998;-80
2023/09/13 00:33:35;;;;;;;2.88;1.73;;;;;;;;;;6098589;23;20442;-79
2023/09/13 00:36:01;;;;;;;1.20;1.05;;;;;;;;;;6134525;23;20073;-80
2023/09/13 00:38:27;;;;;;;1.27;1.05;;;;;;;;;;6134436;23;20390;-81
2023/09/13 00:40:53;;;;;;;1.88;1.42;;;;;;;;;;6098709;23;19998;-81
2023/09/13 00:43:19;;;;;;;1.25;1.15;;;;;;;;;;6124938;23;20381;-81
2023/09/13 00:45:48;;;;;;;1.25;1.15;;;27.20;68.60;;;;;;6125084;23;20327;-80
2023/09/13 00:48:15;;;;;;;1.58;1.38;;;27.30;66.90;;;;;;6124666;23;20009;-80
2023/09/13 00:50:42;;;;;;;1.23;1.13;;;27.20;68.70;;;;;;6134485;23;20025;-79
2023/09/13 00:53:09;;;;;;;1.80;1.30;;;27.20;68.70;;;;;;6134185;23;20010;-80
2023/09/13 00:55:35;;;;;;;1.33;1.23;;;;;;;;;;6108424;23;20002;-80
2023/09/13 00:58:04;;;;;;;1.00;1.00;;;27.20;68.90;;;;;;6099136;23;20337;-76
2023/09/13 01:00:30;;;;;;;1.00;0.90;;;;;;;;;;6134104;23;20012;-76
2023/09/13 01:02:56;;;;;;;1.40;1.30;;;;;;;;;;6124083;23;20024;-76
2023/09/13 01:05:22;;;;;;;2.33;1.30;;;;;;;;;;6134216;23;20041;-76
2023/09/13 01:07:49;;;;;;;1.48;1.38;;;;;;;;;;6134289;23;20002;-76
2023/09/13 01:10:15;;;;;;;1.30;1.20;;;27.10;66.10;;;;;;6134334;23;19998;-80
2023/09/13 01:12:41;;;;;;;1.27;1.17;;;;;;;;;;6134548;23;20006;-80
2023/09/13 01:15:08;;;;;;;1.48;1.20;;;27.10;68.80;;;;;;6134514;23;20357;-80
2023/09/13 01:17:46;;;;;;;2.33;1.27;;;27.60;69.30;;;;;;6124530;23;19998;-80
2023/09/13 01:20:48;;;;;;;1.50;1.38;;;27.00;63.10;;;;;;6134474;23;20009;-80
2023/09/13 01:23:35;;;;;;;1.20;1.20;;;27.00;62.80;;;;;;6134416;23;20024;-80
2023/09/13 01:26:28;;;;;;;1.98;1.52;;;27.00;63.20;;;;;;6134417;23;19998;-80
2023/09/13 01:28:55;;;;;;;2.25;1.67;;;27.10;69.10;;;;;;6124624;23;20354;-76
2023/09/13 01:31:21;;;;;;;1.65;1.50;;;27.10;65.70;;;;;;6134033;23;19998;-75
2023/09/13 01:33:48;;;;;;;1.55;1.45;;;;;;;;;;6133990;23;20085;-76
2023/09/13 01:36:14;;;;;;;1.92;1.50;;;;;;;;;;6134203;23;20002;-76
2023/09/13 01:38:41;;;;;;;1.90;1.65;;;;;;;;;;6134205;23;20001;-80
2023/09/13 01:41:07;;;;;;;1.58;1.48;;;;;;;;;;6098435;23;20002;-80
2023/09/13 01:43:33;;;;;;;1.67;1.58;;;;;;;;;;6134106;23;20057;-80
2023/09/13 01:45:59;;;;;;;1.60;1.50;;;27.60;69.40;;;;;;6134087;23;20426;-80
2023/09/13 01:48:26;;;;;;;1.20;1.10;;;;;;;;;;6134130;23;20005;-80
2023/09/13 01:50:52;;;;;;;2.17;1.60;;;27.00;69.00;;;;;;6124911;23;20307;-80
2023/09/13 01:53:19;;;;;;;2.53;1.73;;;;;;;;;;6134245;23;20081;-80
2023/09/13 01:55:45;;;;;;;1.63;1.50;;;;;;;;;;6134510;23;19998;-80
2023/09/13 01:58:11;;;;;;;2.70;1.52;;;;;;;;;;6134068;23;20056;-80
2023/09/13 02:00:37;;;;;;;1.40;1.30;;;;;;;;;;6135636;23;20321;-80
2023/09/13 02:03:03;;;;;;;1.58;1.48;;;;;;;;;;6135593;23;20014;-80
2023/09/13 02:05:29;;;;;;;1.33;1.23;;;;;;;;;;6135762;23;19998;-80
2023/09/13 02:07:55;;;;;;;2.22;1.52;;;;;;;;;;6110159;23;20077;-80
2023/09/13 02:10:21;;;;;;;1.50;1.40;;;;;;;;;;6110022;23;19993;-80
2023/09/13 02:12:46;;;;;;;1.67;1.45;;;;;;;;;;6135608;23;20089;-80
2023/09/13 02:15:12;;;;;;;1.40;1.27;;;;;;;;;;6135772;23;20069;-80
2023/09/13 02:17:39;;;;;;;1.20;1.20;;;;;;;;;;6100006;23;20402;-81
2023/09/13 02:20:05;;;;;;;1.60;1.27;;;;;;;;;;6135402;23;20450;-80
2023/09/13 02:22:31;;;;;;;1.50;1.30;;;;;;;;;;6135504;23;20005;-80
2023/09/13 02:24:57;;;;;;;1.50;1.40;;;;;;;;;;6100339;23;20033;-76
2023/09/13 02:27:23;;;;;;;1.65;1.55;;;;;;;;;;6135580;23;20002;-76
2023/09/13 02:29:49;;;;;;;1.80;1.70;;;;;;;;;;6135441;23;20005;-76
2023/09/13 02:32:15;;;;;;;1.48;1.38;;;;;;;;;;6135452;23;20333;-76
2023/09/13 02:34:44;;;;;;;1.92;1.42;;;26.90;69.30;;;;;;6135419;23;20013;-76
2023/09/13 02:37:10;;;;;;;1.47;1.37;;;;;;;;;;6135755;23;19994;-80
2023/09/13 02:39:38;;;;;;;1.30;1.20;;;26.90;69.50;;;;;;6099713;23;20006;-80
2023/09/13 02:42:05;;;;;;;1.25;1.15;;;26.80;66.00;;;;;;6135845;23;20009;-80
2023/09/13 02:44:31;;;;;;;1.30;1.20;;;;;;;;;;6135822;23;20120;-80
2023/09/13 02:47:01;;;;;;;1.42;1.20;;;26.70;63.40;;;;;;6135451;23;20081;-80
2023/09/13 02:49:27;;;;;;;2.40;1.50;;;;;;;;;;6135666;23;20426;-80
2023/09/13 02:51:54;;;;;;;2.25;1.60;;;26.70;66.60;;;;;;6135955;23;20044;-76
2023/09/13 02:54:20;;;;;;;1.77;1.48;;;;;;;;;;6125478;23;20006;-76
2023/09/13 02:56:47;;;;;;;1.48;1.25;;;26.70;68.00;;;;;;6135404;23;20097;-75
2023/09/13 02:59:13;;;;;;;1.17;1.08;;;;;;;;;;6125985;23;20034;-76
2023/09/13 03:01:41;;;;;;;1.38;1.20;;;24.70;68.20;;;;;;6135011;23;20017;-77
2023/09/13 03:04:07;;;;;;;1.42;1.33;;;;;;;;;;6135859;23;20025;-76
2023/09/13 03:06:33;;;;;;;1.20;1.10;;;;;;;;;;6135612;23;20005;-76
2023/09/13 03:08:59;;;;;;;1.85;1.50;;;;;;;;;;6135218;23;20342;-74
2023/09/13 03:11:25;;;;;;;2.28;1.50;;;;;;;;;;6134590;23;20059;-74
2023/09/13 03:13:51;;;;;;;1.77;1.30;;;;;;;;;;6134820;23;20432;-75
2023/09/13 03:16:21;;;;;;;1.50;1.40;;;26.60;63.70;;;;;;6135085;23;20052;-75
2023/09/13 03:18:48;;;;;;;1.70;1.30;;;26.70;66.30;;;;;;6134905;23;20048;-75
2023/09/13 03:21:14;;;;;;;1.50;1.27;;;;;;;;;;6135656;23;19994;-80
2023/09/13 03:23:42;;;;;;;2.38;1.45;;;26.60;69.50;;;;;;6135239;23;20071;-79
2023/09/13 03:26:19;;;;;;;2.17;1.38;;;26.50;63.50;;;;;;6109357;23;20002;-80
2023/09/13 03:28:48;;;;;;;1.40;1.30;;;26.60;69.70;;;;;;6134981;23;20366;-80
2023/09/13 03:31:19;;;;;;;2.65;1.30;;;26.60;64.00;;;;;;6125563;23;20002;-80
2023/09/13 03:33:46;;;;;;;1.50;1.40;;;26.60;68.70;;;;;;6099096;23;20006;-75
2023/09/13 03:36:14;;;;;;;1.63;1.52;;;26.60;67.80;;;;;;6125348;23;20069;-75
2023/09/13 03:38:41;;;;;;;1.70;1.60;;;26.50;69.70;;;;;;6125227;23;19998;-75
2023/09/13 03:41:08;;;;;;;2.35;1.48;;;;;;;;;;6124866;23;20394;-75
2023/09/13 03:43:34;;;;;;;1.50;1.33;;;;;;;;;;6124885;23;20010;-75
2023/09/13 03:46:03;;;;;;;1.70;1.60;;;26.50;69.80;;;;;;6125415;23;19998;-74
2023/09/13 03:48:30;;;;;;;1.85;1.60;;;;;;;;;;6125157;23;20076;-74
2023/09/13 03:50:57;;;;;;;2.00;1.52;;;;;;;;;;6125550;23;20307;-75
2023/09/13 03:53:24;;;;;;;1.70;1.60;;;;;;;;;;6134414;23;20044;-75
2023/09/13 03:55:50;;;;;;;1.40;1.30;;;;;;;;;;6134596;23;19998;-75
2023/09/13 03:58:16;;;;;;;2.08;1.48;;;;;;;;;;6124986;23;20025;-75
2023/09/13 04:00:42;;;;;;;1.95;1.67;;;;;;;;;;6134569;23;20332;-75
2023/09/13 04:03:08;;;;;;;2.13;1.40;;;;;;;;;;6134334;23;20097;-75
2023/09/13 04:05:34;;;;;;;1.85;1.30;;;;;;;;;;6134524;23;19998;-75
2023/09/13 04:08:00;;;;;;;2.15;1.73;;;;;;;;;;6134454;23;20025;-75
2023/09/13 04:10:26;;;;;;;1.83;1.63;;;;;;;;;;6134418;23;20025;-75
2023/09/13 04:12:52;;;;;;;1.73;1.27;;;;;;;;;;6134463;23;20088;-75
2023/09/13 04:15:18;;;;;;;1.35;1.25;;;;;;;;;;6134549;23;20442;-75
2023/09/13 04:17:44;;;;;;;1.92;1.58;;;;;;;;;;6125147;23;20377;-75
2023/09/13 04:20:11;;;;;;;1.48;1.38;;;;;;;;;;6134364;23;20080;-75
2023/09/13 04:22:37;;;;;;;2.58;1.55;;;;;;;;;;6134309;23;19998;-75
2023/09/13 04:25:07;;;;;;;1.50;1.40;;;26.40;69.40;;;;;;6108604;23;20002;-75
2023/09/13 04:27:33;;;;;;;1.95;1.52;;;;;;;;;;6134451;23;20299;-75
2023/09/13 04:29:59;;;;;;;1.65;1.30;;;;;;;;;;6134615;23;20333;-80
2023/09/13 04:32:25;;;;;;;1.65;1.38;;;;;;;;;;6124889;23;20382;-80
2023/09/13 04:34:51;;;;;;;1.60;1.50;;;;;;;;;;6134457;23;19998;-80
2023/09/13 04:37:17;;;;;;;2.00;1.50;;;;;;;;;;6134579;23;20001;-79
2023/09/13 04:39:43;;;;;;;1.52;1.42;;;;;;;;;;6134265;23;20072;-80
2023/09/13 04:42:09;;;;;;;5.00;1.40;;;;;;;;;;6134222;23;20003;-79
2023/09/13 04:44:35;;;;;;;1.42;1.30;;;;;;;;;;6074839;23;19998;-80
2023/09/13 04:47:01;;;;;;;2.00;1.40;;;;;;;;;;6125062;23;20333;-76
2023/09/13 04:49:27;;;;;;;2.47;1.20;;;;;;;;;;6134394;23;19998;-75
2023/09/13 04:51:54;;;;;;;1.35;1.15;;;;;;;;;;6134391;23;20001;-75
2023/09/13 04:54:22;;;;;;;1.15;1.00;;;;;;;;;;6134195;23;20006;-75
2023/09/13 04:56:48;;;;;;;1.55;1.30;;;;;;;;;;6124841;23;20076;-75
2023/09/13 04:59:14;;;;;;;1.50;1.40;;;;;;;;;;6124518;23;20057;-79
2023/09/13 05:01:40;;;;;;;1.55;1.15;;;;;;;;;;6098262;23;20017;-79
2023/09/13 05:04:07;;;;;;;1.05;1.05;;;;;;;;;;6134324;23;20375;-78
2023/09/13 05:06:33;;;;;;;1.63;1.40;;;;;;;;;;6134164;23;20009;-79
2023/09/13 05:08:59;;;;;;;1.33;1.23;;;;;;;;;;6134292;23;20369;-80
2023/09/13 05:11:25;;;;;;;1.48;1.17;;;;;;;;;;6134332;23;20060;-80
2023/09/13 05:13:51;;;;;;;1.30;1.10;;;;;;;;;;6134372;23;20050;-80
2023/09/13 05:16:21;;;;;;;3.67;1.30;;;;;;;;;;6125105;23;20002;-80
2023/09/13 05:18:47;;;;;;;1.73;1.23;;;;;;;;;;6124831;23;20076;-77
2023/09/13 05:21:13;;;;;;;1.50;1.13;;;;;;;;;;6134421;23;19998;-80
2023/09/13 05:23:39;;;;;;;2.67;1.00;;;;;;;;;;6134319;23;19998;-80
2023/09/13 05:26:06;;;;;;;1.50;1.00;;;;;;;;;;6098269;23;20323;-75
2023/09/13 05:28:33;;;;;;;1.20;1.10;;;;;;;;;;6134236;23;19998;-76
2023/09/13 05:31:03;;;;;;;2.25;1.52;;;26.10;64.90;;;;;;6123997;23;20078;-78
2023/09/13 05:33:29;;;;;;;0.90;0.90;;;;;;;;;;6124254;23;20033;-79
2023/09/13 05:35:56;;;;;;;1.83;1.20;;;;;;;;;;6126079;23;20448;-77
2023/09/13 05:38:23;;;;;;;1.35;1.15;;;;;;;;;;6100736;23;20294;-78
2023/09/13 05:40:49;;;;;;;2.03;1.10;;;;;;;;;;6126580;23;20002;-76
2023/09/13 05:43:16;;;;;;;1.48;1.00;;;;;;;;;;6126542;23;20456;-74
2023/09/13 05:45:42;;;;;;;1.33;1.20;;;;;;;;;;6126237;23;19998;-75
2023/09/13 05:48:09;;;;;;;2.22;1.08;;;;;;;;;;6126350;23;20005;-75
2023/09/13 05:50:35;;;;;;;0.88;0.80;;;;;;;;;;6126855;23;19998;-77
2023/09/13 05:53:02;;;;;;;1.15;0.82;;;;;;;;;;6126329;23;20079;-77
2023/09/13 05:55:28;;;;;;;3.63;1.30;;;;;;;;;;6136169;23;20005;-79
2023/09/13 05:57:54;;;;;;;2.95;1.00;;;;;;;;;;6126138;23;20006;-75
2023/09/13 06:00:20;;;;;;;3.08;1.05;;;;;;;;;;6125806;23;20426;-77
2023/09/13 06:02:46;;;;;;;1.10;0.82;;;;;;;;;;6135473;23;20386;-77
2023/09/13 06:05:12;;;;;;;1.98;1.27;;;;;;;;;;6135800;23;19998;-77
2023/09/13 06:07:38;;;;;;;5.57;1.23;;;;;;;;;;6135814;23;19998;-76
2023/09/13 06:10:05;;;;;;;2.20;1.00;;;;;;;;;;6126496;23;20084;-76
2023/09/13 06:12:31;;;;;;;3.78;1.15;;;;;;;;;;6136197;23;20299;-76
2023/09/13 06:14:59;;;;;;;1.42;0.82;;;;;;;;;;6135816;23;20002;-75
2023/09/13 06:17:25;;;;;;;4.00;1.17;;;;;;;;;;6126290;23;20006;-75
2023/09/13 06:19:51;;;;;;;2.15;0.98;;;;;;;;;;6135575;23;20001;-74
2023/09/13 06:22:17;;;;;;;3.38;1.00;;;;;;;;;;6135705;23;20037;-74
2023/09/13 06:24:44;;;;;;;0.70;0.70;;;;;;;;;;6135792;23;20004;-74
2023/09/13 06:27:10;;;;;;;1.73;0.70;;;;;;;;;;6135735;23;20033;-77
2023/09/13 06:29:36;;;;;;;3.13;0.90;;;;;;;;;;6135829;23;19998;-76
2023/09/13 06:32:03;;;;;;;1.65;0.95;;;26.00;68.80;;;;;;6135568;23;20006;-76
2023/09/13 06:34:29;;;;;;;2.83;1.20;;;;;;;;;;6135495;23;20013;-76
2023/09/13 06:36:55;;;;;;;1.02;0.70;;;;;;;;;;6126106;23;20326;-76
2023/09/13 06:39:22;;;;;;;1.70;0.88;;;;;;;;;;6126198;23;20002;-76
2023/09/13 06:41:48;;;;;;;1.75;1.05;;;;;;;;;;6126092;23;20009;-77
2023/09/13 06:44:15;;;;;;;1.48;0.70;;;;;;;;;;6125783;23;20061;-76
2023/09/13 06:46:42;;;;;;;1.50;0.70;;;;;;;;;;6125138;23;20030;-78
2023/09/13 06:49:08;;;;;;;3.25;0.82;;;;;;;;;;6125650;23;20029;-77
2023/09/13 06:51:35;;;;;;;3.45;0.90;;;;;;;;;;6125746;23;20021;-76
2023/09/13 06:54:02;;;;;;;1.50;0.73;;;;;;;;;;6125808;23;20037;-75
2023/09/13 06:56:28;;;;;;;2.25;1.00;;;;;;;;;;6131658;23;20024;-77
2023/09/13 06:58:55;;;;;;;0.68;0.50;;;;;;;;;;6126061;23;20338;-77
2023/09/13 07:01:21;;;;;;;1.60;0.73;;;;;;;;;;6125462;23;20002;-78
2023/09/13 07:03:47;;;;;;;3.60;1.10;;;;;;;;;;6126112;23;20093;-77
2023/09/13 07:06:14;;;;;;;1.90;1.00;;;;;;;;;;6125903;23;20362;-74
2023/09/13 07:08:41;;;;;;;1.40;0.80;;;;;;;;;;6125845;23;20057;-75
2023/09/13 07:11:07;;;;;;;0.90;0.60;;;;;;;;;;6125286;23;20002;-75
2023/09/13 07:13:34;;;;;;;2.38;0.95;;;;;;;;;;6125065;23;20034;-76
2023/09/13 07:16:00;;;;;;;2.97;0.85;;;;;;;;;;6125156;23;20012;-74
2023/09/13 07:18:26;;;;;;;1.83;0.60;;;;;;;;;;6125542;23;20332;-75
2023/09/13 07:20:53;;;;;;;1.35;0.80;;;;;;;;;;6125529;23;20359;-74
2023/09/13 07:23:19;;;;;;;3.00;0.70;;;;;;;;;;6125553;23;20334;-74
2023/09/13 07:25:48;;;;;;;1.77;0.98;;;25.80;70.80;;;;;;6125410;23;20005;-74
2023/09/13 07:28:14;;;;;;;1.83;0.68;;;;;;;;;;6125104;23;19994;-75
2023/09/13 07:30:41;;;;;;;2.15;0.60;;;;;;;;;;6125632;23;20041;-74
2023/09/13 07:33:07;;;;;;;1.30;0.85;;;;;;;;;;6124947;23;20060;-75
2023/09/13 07:35:34;;;;;;;0.93;0.60;;;;;;;;;;6125064;23;20334;-75
2023/09/13 07:38:00;;;;;;;1.92;0.90;;;;;;;;;;6125880;23;20012;-76
2023/09/13 07:40:27;;;;;;;1.38;0.70;;;;;;;;;;6125668;23;20002;-75
2023/09/13 07:42:53;;;;;;;1.25;0.60;;;;;;;;;;6125374;23;20005;-75
2023/09/13 07:45:20;;;;;;;1.48;0.70;;;;;;;;;;6124863;23;20002;-75
2023/09/13 07:47:46;;;;;;;2.50;0.70;;;;;;;;;;6124989;23;20334;-76
2023/09/13 07:50:33;;;;;;;1.60;0.90;;;25.70;64.90;;;;;;6124884;23;20001;-75
2023/09/13 07:53:00;;;;;;;1.45;0.75;;;;;;;;;;6125164;23;20106;-75
2023/09/13 07:55:26;;;;;;;0.50;0.40;;;;;;;;;;6124956;23;20037;-76
2023/09/13 07:57:53;;;;;;;1.98;0.70;;;;;;;;;;6124891;23;20006;-75
2023/09/13 08:00:19;;;;;;;1.50;0.50;;;;;;;;;;6124747;23;20446;-76
2023/09/13 08:02:47;;;;;;;2.05;0.50;;;;;;;;;;6124580;23;20014;-75
2023/09/13 08:05:19;;;;;;;1.17;0.70;;;;;;;;;;6099421;23;20025;-76
2023/09/13 08:07:46;;;;;;;0.70;0.50;;;;;;;;;;6125245;23;20049;-75
2023/09/13 08:10:12;;;;;;;1.15;0.60;;;;;;;;;;6134722;23;20311;-75
2023/09/13 08:12:38;;;;;;;1.35;0.60;;;;;;;;;;6134394;23;20057;-75
2023/09/13 08:15:04;;;;;;;1.55;0.70;;;;;;;;;;6134608;23;20001;-75
2023/09/13 08:17:33;;;;;;;1.67;0.80;;;;;;;;;;6134521;23;20002;-75
2023/09/13 08:19:59;;;;;;;1.70;0.88;;;;;;;;;;6134579;23;20009;-75
2023/09/13 08:22:25;;;;;;;2.70;0.55;;;;;;;;;;6134560;23;19994;-76
2023/09/13 08:24:51;;;;;;;1.02;0.70;;;;;;;;;;6134395;23;19998;-74
2023/09/13 08:27:17;;;;;;;2.13;0.85;;;;;;;;;;6134515;23;20009;-74
2023/09/13 08:29:43;;;;;;;2.13;0.40;;;;;;;;;;6134282;23;20322;-73
2023/09/13 08:32:09;;;;;;;1.67;0.60;;;;;;;;;;6134271;23;20008;-74
2023/09/13 08:34:35;;;;;;;2.22;0.98;;;;;;;;;;6134297;23;20014;-73
2023/09/13 08:37:01;;;;;;;0.85;0.60;;;;;;;;;;6125001;23;20006;-75
2023/09/13 08:39:27;;;;;;;2.03;0.70;;;;;;;;;;6134322;23;20002;-74
2023/09/13 08:41:54;;;;;;;1.35;0.85;;;25.60;71.10;;;;;;6134204;23;19998;-74
2023/09/13 08:44:22;;;;;;;1.15;0.77;;;25.60;69.40;;;;;;6134101;23;20030;-73
2023/09/13 08:46:49;;;;;;;1.67;0.68;;;25.70;71.40;;;;;;6134222;23;20825;-74
2023/09/13 08:49:16;;;;;;;1.15;0.70;;;25.60;71.40;;;;;;6134160;23;19998;-73
2023/09/13 08:51:45;;;;;;;2.67;0.60;;;25.70;71.60;;;;;;6134167;23;20009;-73
2023/09/13 08:54:11;;;;;;;1.33;0.52;;;;;;;;;;6134610;23;20013;-75
2023/09/13 08:56:42;;;;;;;1.23;0.75;;;25.70;71.60;;;;;;6134881;23;20001;-76
2023/09/13 08:59:08;;;;;;;1.00;0.90;;;;;;;;;;6134435;23;20028;-75
2023/09/13 09:01:36;;;;;;;2.47;0.60;;;25.70;71.50;;;;;;6124544;23;20021;-76
2023/09/13 09:04:03;;;;;;;1.60;0.43;;;;;;;;;;6125052;23;20002;-76
2023/09/13 09:06:31;;;;;;;0.82;0.50;;;25.80;71.50;;;;;;6124507;23;20338;-75
2023/09/13 09:08:58;;;;;;;1.23;0.70;;;;;;;;;;6125679;23;20009;-75
2023/09/13 09:11:26;;;;;;;1.73;0.40;;;25.80;71.40;;;;;;6126796;23;20006;-75
2023/09/13 09:13:55;;;;;;;0.80;0.40;;;25.90;71.50;;;;;;6126299;23;20013;-76
2023/09/13 09:16:22;;;;;;;1.08;0.52;;;;;;;;;;6126589;23;19994;-76
2023/09/13 09:18:52;;;;;;;0.60;0.40;;;25.90;71.50;;;;;;6126655;23;20130;-76
2023/09/13 09:21:18;;;;;;;0.90;0.38;;;;;;;;;;6136563;23;20037;-73
2023/09/13 09:23:44;;;;;;;0.90;0.43;;;;;;;;;;6136119;23;20005;-74
2023/09/13 09:26:11;;;;;;;0.98;0.52;;;26.00;65.20;;;;;;6126522;23;20006;-74
2023/09/13 09:28:37;;;;;;;0.57;0.52;;;;;;;;;;6135971;23;20006;-74
2023/09/13 09:31:03;;;;;;;2.38;0.80;;;;;;;;;;6136110;23;20056;-75
2023/09/13 09:33:31;;;;;;;1.02;0.60;;;26.10;67.80;;;;;;6100127;23;20338;-75
2023/09/13 09:35:59;;;;;;;0.82;0.60;;;26.20;67.80;;;;;;6136018;23;19995;-74
2023/09/13 09:38:28;;;;;;;1.50;0.50;;;26.20;67.60;;;;;;6135897;23;20034;-74
2023/09/13 09:41:00;;;;;;;1.08;0.52;;;26.30;61.80;;;;;;6126147;23;19998;-74
2023/09/13 09:43:26;;;;;;;1.48;0.70;;;;;;;;;;6136144;23;20001;-74
2023/09/13 09:45:53;;;;;;;1.10;0.55;;;26.40;65.20;;;;;;6136636;23;20008;-77
2023/09/13 09:48:19;;;;;;;2.00;0.85;;;26.50;66.10;;;;;;6136176;23;20504;-74
2023/09/13 09:50:49;;;;;;;1.48;0.70;;;26.50;64.80;;;;;;6136569;23;20014;-75
2023/09/13 09:53:17;;;;;;;0.68;0.40;;;26.40;64.20;;;;;;6135890;23;20009;-74
2023/09/13 09:55:43;;;;;;;0.75;0.50;;;26.60;64.40;;;;;;6100011;23;20505;-74
2023/09/13 09:58:09;;;;;;;0.60;0.40;;;26.60;65.30;;;;;;6135976;23;20001;-74
2023/09/13 10:01:02;;;;;;;0.60;0.50;;;26.70;67.40;;;;;;6135862;23;19994;-74
2023/09/13 10:03:35;;;;;;;0.75;0.57;;;26.70;67.10;;;;;;6120503;23;20030;-75
2023/09/13 10:06:03;;;;;;;0.82;0.57;;;26.80;67.40;;;;;;6135925;23;20325;-75
2023/09/13 10:08:59;;;;;;;0.50;0.40;;;26.70;61.70;;;;;;6135663;23;20002;-75
2023/09/13 10:11:25;;;;;;;0.98;0.73;;;;;;;;;;6105719;23;20006;-75
2023/09/13 10:13:51;;;;;;;1.15;0.57;;;;;;;;;;6135400;23;20006;-75
2023/09/13 10:16:17;;;;;;;1.40;0.47;;;26.90;64.10;;;;;;6135522;23;20004;-75
2023/09/13 10:18:45;;;;;;;1.25;0.60;;;26.70;67.40;;;;;;6136060;23;19998;-75
2023/09/13 10:21:12;;;;;;;0.77;0.50;;;;;;;;;;6125791;23;20377;-74
2023/09/13 10:23:39;;;;;;;1.65;0.60;;;26.80;67.70;;;;;;6135484;23;20033;-75
2023/09/13 10:26:08;;;;;;;1.35;0.50;;;26.80;67.70;;;;;;6125722;23;20441;-75
2023/09/13 10:28:39;;;;;;;0.77;0.52;;;;;;;;;;6135335;23;20005;-74
2023/09/13 10:31:19;;;;;;;2.08;0.63;;;26.70;67.90;;;;;;6126210;23;20326;-76
2023/09/13 10:33:52;;;;;;;1.65;0.80;;;26.70;68.10;;;;;;6135526;23;20022;-76
2023/09/13 10:36:27;;;;;;;0.80;0.70;;;26.70;62.60;;;;;;6135612;23;20610;-76
2023/09/13 10:39:04;;;;;;;1.05;0.60;;;26.90;68.80;;;;;;6135511;23;20307;-76
2023/09/13 10:41:38;;;;;;;0.70;0.50;;;26.70;68.40;;;;;;6135425;23;20085;-76
2023/09/13 10:44:04;;;;;;;1.20;0.73;;;;;;;;;;6135461;23;19994;-76
2023/09/13 10:46:31;;;;;;;0.63;0.60;;;26.80;67.00;;;;;;6135675;23;20002;-74
2023/09/13 10:48:58;;;;;;;2.63;0.63;;;26.80;66.20;;;;;;6125659;23;20037;-74
2023/09/13 10:51:26;;;;;;;1.55;0.70;;;27.00;68.20;;;;;;6135242;23;20032;-74
2023/09/13 10:53:52;;;;;;;0.88;0.65;;;;;;;;;;6134925;23;20347;-74
2023/09/13 10:56:19;;;;;;;0.65;0.57;;;;;;;;;;6135058;23;20022;-74
2023/09/13 10:58:45;;;;;;;0.85;0.70;;;;;;;;;;6125250;23;20490;-75
2023/09/13 11:01:12;;;;;;;0.65;0.50;;;27.30;63.70;;;;;;6135129;23;20073;-75
2023/09/13 11:03:38;;;;;;;1.00;0.63;;;;;;;;;;6134957;23;20492;-75
2023/09/13 11:06:04;;;;;;;0.80;0.45;;;;;;;;;;6135125;23;20024;-75
2023/09/13 11:08:33;;;;;;;1.40;0.68;;;27.80;60.30;;;;;;6109339;23;20033;-75
2023/09/13 11:11:16;;;;;;;1.77;0.80;;;27.80;60.00;;;;;;6134976;23;20048;-75
2023/09/13 11:13:46;;;;;;;1.48;0.52;;;27.90;65.60;;;;;;6134966;23;20017;-74
2023/09/13 11:16:18;;;;;;;0.95;0.50;;;28.00;59.60;;;;;;6125725;23;19997;-74
2023/09/13 11:18:48;;;;;;;2.00;0.40;;;28.00;59.70;;;;;;6135024;23;20017;-74
2023/09/13 11:21:37;;;;;;;;;;;27.90;65.80;;;;;;6135442;23;19998;-74
2023/09/13 11:24:03;;;;;;;0.80;0.40;;;;;;;;;;6106886;23;19901;-74
2023/09/13 11:26:48;;;;;;;0.90;0.50;;;27.80;60.30;;;;;;6134922;23;20076;-76
2023/09/13 11:29:22;;;;;;;1.75;0.50;;;27.70;60.50;;;;;;6134986;23;20326;-75
2023/09/13 11:31:56;;;;;;;1.08;0.60;;;27.70;60.50;;;;;;6134401;23;20077;-75
2023/09/13 11:34:22;;;;;;;1.67;0.60;;;;;;;;;;6134705;23;20006;-75
2023/09/13 11:37:15;;;;;;;1.15;0.50;;;27.70;60.70;;;;;;6134580;23;20382;-75
2023/09/13 11:39:42;;;;;;;1.08;0.50;;;27.70;65.10;;;;;;6119749;23;20434;-75
2023/09/13 11:42:09;;;;;;;2.60;0.50;;;27.60;66.50;;;;;;6098970;23;20386;-75
2023/09/13 11:44:37;;;;;;;1.02;0.70;;;27.70;66.40;;;;;;6135196;23;20275;-74
2023/09/13 11:47:04;;;;;;;1.10;0.40;;;;;;;;;;6124747;23;20007;-74
2023/09/13 11:49:30;;;;;;;1.02;0.63;;;;;;;;;;6134604;23;20005;-74
2023/09/13 11:51:57;;;;;;;4.20;1.00;;;27.60;66.80;;;;;;6134564;23;20044;-74
2023/09/13 11:54:24;;;;;;;1.05;0.82;;;27.30;66.80;;;;;;6134679;23;20006;-74
2023/09/13 11:56:55;;;;;;;0.52;0.50;;;27.60;67.00;;;;;;6134723;23;19994;-76
2023/09/13 11:59:30;;;;;;;1.25;0.60;;;27.20;60.80;;;;;;6134588;23;20329;-76
2023/09/13 12:01:56;;;;;;;1.13;0.70;;;;;;;;;;6134018;23;20076;-76
2023/09/13 12:04:25;;;;;;;1.30;0.77;;;27.40;61.10;;;;;;6134456;23;19998;-76
2023/09/13 12:06:54;;;;;;;0.73;0.50;;;27.60;67.20;;;;;;6134830;23;20009;-74
2023/09/13 12:09:21;;;;;;;1.58;0.65;;;27.30;66.10;;;;;;6123148;23;20082;-75
2023/09/13 12:11:51;;;;;;;1.00;0.68;;;27.50;66.90;;;;;;6135061;23;20009;-76
2023/09/13 12:14:18;;;;;;;0.65;0.52;;;27.50;67.20;;;;;;6134513;23;20010;-75
2023/09/13 12:16:49;;;;;;;1.17;0.60;;;27.50;67.00;;;;;;6098709;23;20349;-75
2023/09/13 12:19:15;;;;;;;1.05;0.75;;;;;;;;;;6134524;23;20002;-76
2023/09/13 12:21:45;;;;;;;1.50;0.60;;;27.60;61.50;;;;;;6134454;23;19994;-75
2023/09/13 12:24:21;;;;;;;;;;;27.50;67.80;;;;;;6135000;23;20073;-76
2023/09/13 12:26:47;;;;;;;1.30;0.73;;;;;;;;;;6134514;23;19924;-76
2023/09/13 12:29:14;;;;;;;0.80;0.60;;;27.70;66.30;;;;;;6124786;23;20422;-76
2023/09/13 12:31:40;;;;;;;1.42;0.90;;;;;;;;;;6124979;23;20049;-76
2023/09/13 12:34:07;;;;;;;1.60;0.80;;;;;;;;;;6124393;23;20020;-76
2023/09/13 12:36:34;;;;;;;1.75;0.88;;;;;;;;;;6124813;23;20072;-76
2023/09/13 12:39:01;;;;;;;1.85;0.73;;;;;;;;;;6124495;23;20422;-76
2023/09/13 12:41:32;;;;;;;1.10;0.80;;;27.90;66.00;;;;;;6125409;23;20009;-74
2023/09/13 12:44:00;;;;;;;2.40;0.82;;;27.80;65.70;;;;;;6124706;23;20006;-74
2023/09/13 12:46:27;;;;;;;1.13;0.70;;;27.90;65.40;;;;;;6124719;23;19998;-74
2023/09/13 12:48:57;;;;;;;1.38;0.60;;;27.90;60.00;;;;;;6124762;23;20346;-73
2023/09/13 12:51:31;;;;;;;0.70;0.70;;;28.00;66.40;;;;;;6124618;23;20370;-73
2023/09/13 12:53:59;;;;;;;1.58;0.80;;;28.00;65.50;;;;;;6124119;23;20041;-73
2023/09/13 12:56:26;;;;;;;0.80;0.60;;;;;;;;;;6124566;23;20052;-74
2023/09/13 12:58:56;;;;;;;1.50;0.77;;;28.30;65.30;;;;;;6124624;23;20002;-74
2023/09/13 13:01:24;;;;;;;0.80;0.70;;;28.30;62.70;;;;;;6123928;23;20469;-73
2023/09/13 13:03:59;;;;;;;2.38;0.70;;;28.40;59.40;;;;;;6124467;23;20029;-74
2023/09/13 13:06:26;;;;;;;1.55;0.77;;;;;;;;;;6124604;23;19998;-74
2023/09/13 13:08:52;;;;;;;0.82;0.73;;;;;;;;;;6124316;23;20009;-75
2023/09/13 13:11:19;;;;;;;1.75;0.98;;;;;;;;;;6124019;23;20430;-76
2023/09/13 13:13:45;;;;;;;2.53;1.00;;;;;;;;;;6124232;23;20021;-74
2023/09/13 13:16:19;;;;;;;1.02;0.90;;;28.40;58.90;;;;;;6124175;23;20030;-74
2023/09/13 13:18:53;;;;;;;1.50;0.98;;;28.30;58.50;;;;;;6124635;23;20077;-74
2023/09/13 13:21:21;;;;;;;1.67;0.70;;;28.30;64.60;;;;;;6124178;23;19994;-74
2023/09/13 13:23:49;;;;;;;1.15;0.90;;;28.30;65.00;;;;;;6124547;23;20006;-73
2023/09/13 13:26:17;;;;;;;1.80;0.70;;;28.10;64.80;;;;;;6124042;23;20073;-74
2023/09/13 13:28:43;;;;;;;1.58;0.90;;;28.10;62.30;;;;;;6125033;23;19998;-74
2023/09/13 13:31:10;;;;;;;1.73;1.05;;;;;;;;;;6124499;23;20057;-74
2023/09/13 13:33:37;;;;;;;1.08;0.80;;;;;;;;;;6124283;23;20079;-74
2023/09/13 13:36:04;;;;;;;2.67;0.90;;;28.10;63.70;;;;;;6124085;23;20426;-74
2023/09/13 13:38:31;;;;;;;1.98;1.00;;;;;;;;;;6124129;23;19998;-74
2023/09/13 13:41:08;;;;;;;1.50;1.00;;;28.00;59.30;;;;;;6124152;23;20580;-74
2023/09/13 13:43:36;;;;;;;1.55;1.00;;;27.90;64.30;;;;;;6124637;23;19998;-75
2023/09/13 13:46:03;;;;;;;1.80;1.05;;;;;;;;;;6124135;23;20006;-74
2023/09/13 13:48:32;;;;;;;0.60;0.60;;;27.90;59.20;;;;;;6133982;23;20009;-77
2023/09/13 13:50:59;;;;;;;6.07;1.25;;;;;;;;;;6134019;23;20085;-75
2023/09/13 13:53:26;;;;;;;0.80;0.77;;;;;;;;;;6134038;23;20044;-76
2023/09/13 13:55:54;;;;;;;2.25;1.10;;;27.80;64.50;;;;;;6135994;23;19997;-73
2023/09/13 13:58:20;;;;;;;5.25;1.63;;;;;;;;;;6135916;23;20009;-74
2023/09/13 14:00:46;;;;;;;3.08;1.42;;;;;;;;;;6135758;23;20117;-73